sensor_id;sensor_type;location;lat;lon;timestamp;P1;durP1;ratioP1;P2;durP2;ratioP2
53389;SDS011;39288;42.970;1.524;2023-03-31T00:00:43;8.87;;;3.67;;
53389;SDS011;39288;42.970;1.524;2023-03-31T00:01:45;9.13;;;3.47;;
53389;SDS011;39288;42.970;1.524;2023-03-31T00:02:46;10.23;;;3.50;;
53389;SDS011;39288;42.970;1.524;2023-03-31T00:03:46;11.20;;;3.73;;
53389;SDS011;39288;42.970;1.524;2023-03-31T00:04:47;13.13;;;4.07;;
53389;SDS011;39288;42.970;1.524;2023-03-31T00:05:55;13.80;;;4.00;;
53389;SDS011;39288;42.970;1.524;2023-03-31T00:06:57;12.32;;;3.72;;
53389;SDS011;39288;42.970;1.524;2023-03-31T00:07:58;12.93;;;3.67;;
53389;SDS011;39288;42.970;1.524;2023-03-31T00:10:01;10.38;;;3.15;;
53389;SDS011;39288;42.970;1.524;2023-03-31T00:11:04;12.03;;;3.40;;
53389;SDS011;39288;42.970;1.524;2023-03-31T00:12:06;10.13;;;3.40;;
53389;SDS011;39288;42.970;1.524;2023-03-31T00:13:07;9.93;;;3.50;;
53389;SDS011;39288;42.970;1.524;2023-03-31T00:14:07;7.77;;;3.00;;
53389;SDS011;39288;42.970;1.524;2023-03-31T00:15:08;8.87;;;3.50;;
53389;SDS011;39288;42.970;1.524;2023-03-31T00:16:09;7.60;;;3.00;;
53389;SDS011;39288;42.970;1.524;2023-03-31T00:17:10;12.13;;;3.53;;
53389;SDS011;39288;42.970;1.524;2023-03-31T00:18:10;9.20;;;3.40;;
53389;SDS011;39288;42.970;1.524;2023-03-31T00:19:11;10.77;;;3.20;;
53389;SDS011;39288;42.970;1.524;2023-03-31T00:20:17;17.40;;;3.58;;
53389;SDS011;39288;42.970;1.524;2023-03-31T00:21:19;7.50;;;2.93;;
53389;SDS011;39288;42.970;1.524;2023-03-31T00:22:23;11.27;;;3.50;;
53389;SDS011;39288;42.970;1.524;2023-03-31T00:23:26;8.40;;;2.75;;
53389;SDS011;39288;42.970;1.524;2023-03-31T00:24:27;13.30;;;3.77;;
53389;SDS011;39288;42.970;1.524;2023-03-31T00:25:31;12.15;;;3.67;;
53389;SDS011;39288;42.970;1.524;2023-03-31T00:26:33;18.07;;;4.07;;
53389;SDS011;39288;42.970;1.524;2023-03-31T00:27:33;7.35;;;2.97;;
53389;SDS011;39288;42.970;1.524;2023-03-31T00:28:34;15.40;;;4.40;;
53389;SDS011;39288;42.970;1.524;2023-03-31T00:29:35;8.73;;;3.20;;
53389;SDS011;39288;42.970;1.524;2023-03-31T00:30:35;11.57;;;3.30;;
53389;SDS011;39288;42.970;1.524;2023-03-31T00:31:36;16.87;;;3.60;;
53389;SDS011;39288;42.970;1.524;2023-03-31T00:33:38;11.15;;;3.42;;
53389;SDS011;39288;42.970;1.524;2023-03-31T00:34:38;8.13;;;3.33;;
53389;SDS011;39288;42.970;1.524;2023-03-31T00:35:39;8.65;;;3.55;;
53389;SDS011;39288;42.970;1.524;2023-03-31T00:36:40;8.87;;;3.50;;
53389;SDS011;39288;42.970;1.524;2023-03-31T00:37:44;8.98;;;2.80;;
53389;SDS011;39288;42.970;1.524;2023-03-31T00:38:46;10.27;;;3.78;;
53389;SDS011;39288;42.970;1.524;2023-03-31T00:39:47;13.27;;;3.78;;
53389;SDS011;39288;42.970;1.524;2023-03-31T00:40:48;9.43;;;3.00;;
53389;SDS011;39288;42.970;1.524;2023-03-31T00:41:48;12.67;;;3.50;;
53389;SDS011;39288;42.970;1.524;2023-03-31T00:42:49;8.03;;;3.20;;
53389;SDS011;39288;42.970;1.524;2023-03-31T00:46:19;9.90;;;3.00;;
53389;SDS011;39288;42.970;1.524;2023-03-31T00:47:23;13.15;;;3.38;;
53389;SDS011;39288;42.970;1.524;2023-03-31T00:48:24;9.38;;;3.65;;
53389;SDS011;39288;42.970;1.524;2023-03-31T00:49:33;10.57;;;3.30;;
53389;SDS011;39288;42.970;1.524;2023-03-31T00:50:40;8.60;;;2.90;;
53389;SDS011;39288;42.970;1.524;2023-03-31T00:51:49;10.10;;;2.80;;
53389;SDS011;39288;42.970;1.524;2023-03-31T00:53:53;10.88;;;3.40;;
53389;SDS011;39288;42.970;1.524;2023-03-31T00:55:00;8.73;;;2.92;;
53389;SDS011;39288;42.970;1.524;2023-03-31T00:56:08;6.38;;;2.95;;
53389;SDS011;39288;42.970;1.524;2023-03-31T00:57:11;7.80;;;3.03;;
53389;SDS011;39288;42.970;1.524;2023-03-31T00:58:12;10.87;;;2.80;;
53389;SDS011;39288;42.970;1.524;2023-03-31T00:59:13;8.20;;;2.75;;
53389;SDS011;39288;42.970;1.524;2023-03-31T01:00:14;11.73;;;3.23;;
53389;SDS011;39288;42.970;1.524;2023-03-31T01:01:16;9.27;;;3.23;;
53389;SDS011;39288;42.970;1.524;2023-03-31T01:02:18;11.55;;;3.20;;
53389;SDS011;39288;42.970;1.524;2023-03-31T01:03:21;10.77;;;3.25;;
53389;SDS011;39288;42.970;1.524;2023-03-31T01:04:22;8.35;;;2.80;;
53389;SDS011;39288;42.970;1.524;2023-03-31T01:07:02;7.47;;;2.80;;
53389;SDS011;39288;42.970;1.524;2023-03-31T01:08:08;9.00;;;2.93;;
53389;SDS011;39288;42.970;1.524;2023-03-31T01:09:09;9.80;;;3.20;;
53389;SDS011;39288;42.970;1.524;2023-03-31T01:10:09;10.53;;;3.40;;
53389;SDS011;39288;42.970;1.524;2023-03-31T01:11:11;12.20;;;3.13;;
53389;SDS011;39288;42.970;1.524;2023-03-31T01:12:12;11.65;;;3.10;;
53389;SDS011;39288;42.970;1.524;2023-03-31T01:13:15;10.77;;;3.13;;
53389;SDS011;39288;42.970;1.524;2023-03-31T01:14:16;7.22;;;3.42;;
53389;SDS011;39288;42.970;1.524;2023-03-31T01:15:16;13.10;;;2.40;;
53389;SDS011;39288;42.970;1.524;2023-03-31T01:16:17;9.80;;;2.73;;
53389;SDS011;39288;42.970;1.524;2023-03-31T01:17:18;9.97;;;3.20;;
53389;SDS011;39288;42.970;1.524;2023-03-31T01:18:20;10.38;;;3.17;;
53389;SDS011;39288;42.970;1.524;2023-03-31T01:19:34;8.23;;;3.20;;
53389;SDS011;39288;42.970;1.524;2023-03-31T01:21:05;9.15;;;2.60;;
53389;SDS011;39288;42.970;1.524;2023-03-31T01:25:05;6.22;;;2.60;;
53389;SDS011;39288;42.970;1.524;2023-03-31T01:26:24;6.82;;;2.95;;
53389;SDS011;39288;42.970;1.524;2023-03-31T01:29:07;7.50;;;3.45;;
53389;SDS011;39288;42.970;1.524;2023-03-31T01:30:40;10.20;;;3.60;;
53389;SDS011;39288;42.970;1.524;2023-03-31T01:36:47;7.40;;;3.25;;
53389;SDS011;39288;42.970;1.524;2023-03-31T01:41:07;10.65;;;3.75;;
53389;SDS011;39288;42.970;1.524;2023-03-31T01:42:28;10.13;;;3.65;;
53389;SDS011;39288;42.970;1.524;2023-03-31T01:43:35;13.45;;;3.17;;
53389;SDS011;39288;42.970;1.524;2023-03-31T01:44:42;8.93;;;3.47;;
53389;SDS011;39288;42.970;1.524;2023-03-31T01:47:01;7.70;;;3.38;;
53389;SDS011;39288;42.970;1.524;2023-03-31T01:48:06;8.48;;;3.42;;
53389;SDS011;39288;42.970;1.524;2023-03-31T01:50:34;10.57;;;3.60;;
53389;SDS011;39288;42.970;1.524;2023-03-31T01:51:47;9.63;;;2.67;;
53389;SDS011;39288;42.970;1.524;2023-03-31T01:54:17;17.60;;;3.75;;
53389;SDS011;39288;42.970;1.524;2023-03-31T01:55:23;13.88;;;3.25;;
53389;SDS011;39288;42.970;1.524;2023-03-31T01:58:28;9.73;;;3.47;;
53389;SDS011;39288;42.970;1.524;2023-03-31T01:59:25;9.10;;;3.50;;
53389;SDS011;39288;42.970;1.524;2023-03-31T02:00:51;8.75;;;3.22;;
53389;SDS011;39288;42.970;1.524;2023-03-31T02:02:02;12.82;;;3.25;;
53389;SDS011;39288;42.970;1.524;2023-03-31T02:03:16;12.75;;;3.85;;
53389;SDS011;39288;42.970;1.524;2023-03-31T02:05:04;10.20;;;3.25;;
53389;SDS011;39288;42.970;1.524;2023-03-31T02:05:52;11.13;;;2.97;;
53389;SDS011;39288;42.970;1.524;2023-03-31T02:06:57;10.20;;;3.78;;
53389;SDS011;39288;42.970;1.524;2023-03-31T02:09:17;11.05;;;3.40;;
53389;SDS011;39288;42.970;1.524;2023-03-31T02:10:21;8.27;;;2.47;;
53389;SDS011;39288;42.970;1.524;2023-03-31T02:11:22;6.97;;;2.75;;
53389;SDS011;39288;42.970;1.524;2023-03-31T02:12:24;9.45;;;3.13;;
53389;SDS011;39288;42.970;1.524;2023-03-31T02:14:27;12.52;;;3.17;;
53389;SDS011;39288;42.970;1.524;2023-03-31T02:15:29;14.35;;;2.90;;
53389;SDS011;39288;42.970;1.524;2023-03-31T02:16:34;8.98;;;3.17;;
53389;SDS011;39288;42.970;1.524;2023-03-31T02:17:36;7.75;;;2.80;;
53389;SDS011;39288;42.970;1.524;2023-03-31T02:18:39;8.82;;;2.80;;
53389;SDS011;39288;42.970;1.524;2023-03-31T02:19:40;7.47;;;2.88;;
53389;SDS011;39288;42.970;1.524;2023-03-31T02:20:44;10.65;;;3.10;;
53389;SDS011;39288;42.970;1.524;2023-03-31T02:21:47;8.02;;;3.03;;
53389;SDS011;39288;42.970;1.524;2023-03-31T02:23:50;9.85;;;3.00;;
53389;SDS011;39288;42.970;1.524;2023-03-31T02:24:51;8.30;;;2.80;;
53389;SDS011;39288;42.970;1.524;2023-03-31T02:25:53;6.75;;;2.63;;
53389;SDS011;39288;42.970;1.524;2023-03-31T02:27:21;5.82;;;2.83;;
53389;SDS011;39288;42.970;1.524;2023-03-31T02:28:25;12.90;;;2.90;;
53389;SDS011;39288;42.970;1.524;2023-03-31T02:29:27;8.85;;;3.28;;
53389;SDS011;39288;42.970;1.524;2023-03-31T02:30:29;6.57;;;2.73;;
53389;SDS011;39288;42.970;1.524;2023-03-31T02:32:40;8.48;;;2.97;;
53389;SDS011;39288;42.970;1.524;2023-03-31T02:33:41;9.50;;;3.03;;
53389;SDS011;39288;42.970;1.524;2023-03-31T02:34:42;9.90;;;3.07;;
53389;SDS011;39288;42.970;1.524;2023-03-31T02:35:42;7.60;;;2.60;;
53389;SDS011;39288;42.970;1.524;2023-03-31T02:36:43;9.27;;;2.87;;
53389;SDS011;39288;42.970;1.524;2023-03-31T02:37:44;7.65;;;2.28;;
53389;SDS011;39288;42.970;1.524;2023-03-31T02:38:47;7.28;;;2.40;;
53389;SDS011;39288;42.970;1.524;2023-03-31T02:39:52;4.88;;;2.15;;
53389;SDS011;39288;42.970;1.524;2023-03-31T02:40:54;6.40;;;2.17;;
53389;SDS011;39288;42.970;1.524;2023-03-31T02:41:55;9.77;;;2.70;;
53389;SDS011;39288;42.970;1.524;2023-03-31T02:42:56;6.80;;;2.67;;
53389;SDS011;39288;42.970;1.524;2023-03-31T02:43:56;7.50;;;2.23;;
53389;SDS011;39288;42.970;1.524;2023-03-31T02:45:03;5.70;;;2.37;;
53389;SDS011;39288;42.970;1.524;2023-03-31T02:46:05;8.63;;;2.50;;
53389;SDS011;39288;42.970;1.524;2023-03-31T02:47:09;10.10;;;3.00;;
53389;SDS011;39288;42.970;1.524;2023-03-31T02:48:19;8.38;;;2.60;;
53389;SDS011;39288;42.970;1.524;2023-03-31T02:49:21;9.75;;;3.05;;
53389;SDS011;39288;42.970;1.524;2023-03-31T02:50:21;6.73;;;2.33;;
53389;SDS011;39288;42.970;1.524;2023-03-31T02:52:39;9.40;;;2.60;;
53389;SDS011;39288;42.970;1.524;2023-03-31T03:00:35;8.52;;;2.60;;
53389;SDS011;39288;42.970;1.524;2023-03-31T03:12:38;9.52;;;3.10;;
53389;SDS011;39288;42.970;1.524;2023-03-31T03:14:49;8.70;;;3.47;;
53389;SDS011;39288;42.970;1.524;2023-03-31T03:16:00;8.60;;;3.17;;
53389;SDS011;39288;42.970;1.524;2023-03-31T03:17:06;8.80;;;2.67;;
53389;SDS011;39288;42.970;1.524;2023-03-31T03:18:11;10.38;;;2.35;;
53389;SDS011;39288;42.970;1.524;2023-03-31T03:19:17;13.70;;;2.30;;
53389;SDS011;39288;42.970;1.524;2023-03-31T03:20:19;7.78;;;2.10;;
53389;SDS011;39288;42.970;1.524;2023-03-31T03:21:22;10.50;;;2.45;;
53389;SDS011;39288;42.970;1.524;2023-03-31T03:22:23;8.50;;;2.60;;
53389;SDS011;39288;42.970;1.524;2023-03-31T03:23:23;7.63;;;2.03;;
53389;SDS011;39288;42.970;1.524;2023-03-31T03:24:24;7.90;;;2.60;;
53389;SDS011;39288;42.970;1.524;2023-03-31T03:25:28;12.45;;;2.47;;
53389;SDS011;39288;42.970;1.524;2023-03-31T03:26:29;11.30;;;2.90;;
53389;SDS011;39288;42.970;1.524;2023-03-31T03:27:29;7.33;;;2.60;;
53389;SDS011;39288;42.970;1.524;2023-03-31T03:28:30;7.57;;;2.27;;
53389;SDS011;39288;42.970;1.524;2023-03-31T03:29:30;7.30;;;2.17;;
53389;SDS011;39288;42.970;1.524;2023-03-31T03:30:31;15.70;;;3.30;;
53389;SDS011;39288;42.970;1.524;2023-03-31T03:31:31;8.40;;;2.20;;
53389;SDS011;39288;42.970;1.524;2023-03-31T03:32:32;13.13;;;2.67;;
53389;SDS011;39288;42.970;1.524;2023-03-31T03:33:33;9.97;;;2.77;;
53389;SDS011;39288;42.970;1.524;2023-03-31T03:34:33;8.63;;;3.43;;
53389;SDS011;39288;42.970;1.524;2023-03-31T03:35:34;7.17;;;2.57;;
53389;SDS011;39288;42.970;1.524;2023-03-31T03:36:35;14.73;;;2.97;;
53389;SDS011;39288;42.970;1.524;2023-03-31T03:37:37;10.68;;;2.33;;
53389;SDS011;39288;42.970;1.524;2023-03-31T03:38:37;8.90;;;2.60;;
53389;SDS011;39288;42.970;1.524;2023-03-31T03:39:38;9.07;;;2.57;;
53389;SDS011;39288;42.970;1.524;2023-03-31T03:40:38;8.67;;;2.77;;
53389;SDS011;39288;42.970;1.524;2023-03-31T03:41:38;12.03;;;4.00;;
53389;SDS011;39288;42.970;1.524;2023-03-31T03:42:39;9.90;;;3.53;;
53389;SDS011;39288;42.970;1.524;2023-03-31T03:43:39;14.87;;;3.30;;
53389;SDS011;39288;42.970;1.524;2023-03-31T03:44:40;7.80;;;3.23;;
53389;SDS011;39288;42.970;1.524;2023-03-31T03:45:40;12.37;;;4.30;;
53389;SDS011;39288;42.970;1.524;2023-03-31T03:46:41;10.07;;;3.53;;
53389;SDS011;39288;42.970;1.524;2023-03-31T03:47:41;8.40;;;3.30;;
53389;SDS011;39288;42.970;1.524;2023-03-31T03:48:42;11.17;;;3.63;;
53389;SDS011;39288;42.970;1.524;2023-03-31T03:49:43;9.33;;;3.40;;
53389;SDS011;39288;42.970;1.524;2023-03-31T03:50:44;8.68;;;4.03;;
53389;SDS011;39288;42.970;1.524;2023-03-31T03:51:45;12.95;;;4.28;;
53389;SDS011;39288;42.970;1.524;2023-03-31T03:52:46;10.90;;;3.83;;
53389;SDS011;39288;42.970;1.524;2023-03-31T03:53:46;7.47;;;2.90;;
53389;SDS011;39288;42.970;1.524;2023-03-31T03:54:47;10.47;;;4.03;;
53389;SDS011;39288;42.970;1.524;2023-03-31T03:55:47;11.30;;;4.13;;
53389;SDS011;39288;42.970;1.524;2023-03-31T03:56:48;10.80;;;4.28;;
53389;SDS011;39288;42.970;1.524;2023-03-31T03:57:49;9.90;;;4.43;;
53389;SDS011;39288;42.970;1.524;2023-03-31T03:58:49;10.50;;;4.37;;
53389;SDS011;39288;42.970;1.524;2023-03-31T03:59:50;13.07;;;5.30;;
53389;SDS011;39288;42.970;1.524;2023-03-31T04:00:50;11.90;;;5.30;;
53389;SDS011;39288;42.970;1.524;2023-03-31T04:01:51;15.27;;;5.73;;
53389;SDS011;39288;42.970;1.524;2023-03-31T04:02:51;13.73;;;5.73;;
53389;SDS011;39288;42.970;1.524;2023-03-31T04:03:52;16.30;;;6.10;;
53389;SDS011;39288;42.970;1.524;2023-03-31T04:04:52;17.17;;;7.57;;
53389;SDS011;39288;42.970;1.524;2023-03-31T04:05:53;18.27;;;6.90;;
53389;SDS011;39288;42.970;1.524;2023-03-31T04:06:53;16.67;;;6.37;;
53389;SDS011;39288;42.970;1.524;2023-03-31T04:07:54;13.70;;;6.17;;
53389;SDS011;39288;42.970;1.524;2023-03-31T04:08:54;17.83;;;7.17;;
53389;SDS011;39288;42.970;1.524;2023-03-31T04:09:55;19.53;;;7.60;;
53389;SDS011;39288;42.970;1.524;2023-03-31T04:10:55;20.33;;;8.07;;
53389;SDS011;39288;42.970;1.524;2023-03-31T04:11:56;20.37;;;9.10;;
53389;SDS011;39288;42.970;1.524;2023-03-31T04:12:56;14.77;;;7.60;;
53389;SDS011;39288;42.970;1.524;2023-03-31T04:13:57;17.23;;;8.33;;
53389;SDS011;39288;42.970;1.524;2023-03-31T04:14:57;16.23;;;7.77;;
53389;SDS011;39288;42.970;1.524;2023-03-31T04:15:57;14.03;;;7.83;;
53389;SDS011;39288;42.970;1.524;2023-03-31T04:16:58;22.53;;;7.67;;
53389;SDS011;39288;42.970;1.524;2023-03-31T04:17:58;22.90;;;8.47;;
53389;SDS011;39288;42.970;1.524;2023-03-31T04:18:59;15.43;;;8.27;;
53389;SDS011;39288;42.970;1.524;2023-03-31T04:20:04;17.88;;;8.15;;
53389;SDS011;39288;42.970;1.524;2023-03-31T04:21:09;20.02;;;7.57;;
53389;SDS011;39288;42.970;1.524;2023-03-31T04:22:21;15.27;;;7.55;;
53389;SDS011;39288;42.970;1.524;2023-03-31T04:23:30;14.88;;;7.72;;
53389;SDS011;39288;42.970;1.524;2023-03-31T04:24:32;16.80;;;8.15;;
53389;SDS011;39288;42.970;1.524;2023-03-31T04:25:32;15.50;;;7.97;;
53389;SDS011;39288;42.970;1.524;2023-03-31T04:26:37;18.08;;;8.07;;
53389;SDS011;39288;42.970;1.524;2023-03-31T04:27:45;16.65;;;8.30;;
53389;SDS011;39288;42.970;1.524;2023-03-31T04:28:49;16.42;;;7.97;;
53389;SDS011;39288;42.970;1.524;2023-03-31T04:29:50;18.40;;;7.97;;
53389;SDS011;39288;42.970;1.524;2023-03-31T04:30:54;18.95;;;7.47;;
53389;SDS011;39288;42.970;1.524;2023-03-31T04:31:57;15.05;;;7.72;;
53389;SDS011;39288;42.970;1.524;2023-03-31T04:32:59;15.67;;;7.30;;
53389;SDS011;39288;42.970;1.524;2023-03-31T04:34:01;13.70;;;7.43;;
53389;SDS011;39288;42.970;1.524;2023-03-31T04:35:05;17.42;;;8.57;;
53389;SDS011;39288;42.970;1.524;2023-03-31T04:36:06;16.07;;;8.20;;
53389;SDS011;39288;42.970;1.524;2023-03-31T04:37:19;18.27;;;8.35;;
53389;SDS011;39288;42.970;1.524;2023-03-31T04:38:22;15.30;;;7.60;;
53389;SDS011;39288;42.970;1.524;2023-03-31T04:39:26;14.98;;;7.15;;
53389;SDS011;39288;42.970;1.524;2023-03-31T04:40:29;19.40;;;8.07;;
53389;SDS011;39288;42.970;1.524;2023-03-31T04:41:29;16.97;;;7.23;;
53389;SDS011;39288;42.970;1.524;2023-03-31T04:42:30;17.93;;;7.90;;
53389;SDS011;39288;42.970;1.524;2023-03-31T04:43:30;16.93;;;7.23;;
53389;SDS011;39288;42.970;1.524;2023-03-31T04:44:31;15.67;;;7.17;;
53389;SDS011;39288;42.970;1.524;2023-03-31T04:45:31;12.50;;;6.80;;
53389;SDS011;39288;42.970;1.524;2023-03-31T04:46:32;15.30;;;7.33;;
53389;SDS011;39288;42.970;1.524;2023-03-31T04:47:33;21.90;;;8.90;;
53389;SDS011;39288;42.970;1.524;2023-03-31T04:48:34;14.17;;;6.93;;
53389;SDS011;39288;42.970;1.524;2023-03-31T04:49:35;15.43;;;7.40;;
53389;SDS011;39288;42.970;1.524;2023-03-31T04:50:36;16.20;;;7.82;;
53389;SDS011;39288;42.970;1.524;2023-03-31T04:51:37;18.15;;;7.75;;
53389;SDS011;39288;42.970;1.524;2023-03-31T04:52:37;15.33;;;6.87;;
53389;SDS011;39288;42.970;1.524;2023-03-31T04:53:38;17.80;;;7.95;;
53389;SDS011;39288;42.970;1.524;2023-03-31T04:54:39;15.27;;;7.57;;
53389;SDS011;39288;42.970;1.524;2023-03-31T04:55:40;17.97;;;7.10;;
53389;SDS011;39288;42.970;1.524;2023-03-31T04:56:41;21.27;;;7.33;;
53389;SDS011;39288;42.970;1.524;2023-03-31T04:57:41;14.20;;;6.70;;
53389;SDS011;39288;42.970;1.524;2023-03-31T04:58:42;14.50;;;6.40;;
53389;SDS011;39288;42.970;1.524;2023-03-31T04:59:43;18.45;;;7.30;;
53389;SDS011;39288;42.970;1.524;2023-03-31T05:00:44;16.77;;;7.10;;
53389;SDS011;39288;42.970;1.524;2023-03-31T05:01:44;24.43;;;7.47;;
53389;SDS011;39288;42.970;1.524;2023-03-31T05:02:45;18.07;;;7.10;;
53389;SDS011;39288;42.970;1.524;2023-03-31T05:03:46;12.63;;;7.07;;
53389;SDS011;39288;42.970;1.524;2023-03-31T05:04:47;14.95;;;6.90;;
53389;SDS011;39288;42.970;1.524;2023-03-31T05:05:47;16.33;;;6.80;;
53389;SDS011;39288;42.970;1.524;2023-03-31T05:06:48;15.70;;;7.30;;
53389;SDS011;39288;42.970;1.524;2023-03-31T05:07:48;12.63;;;6.73;;
53389;SDS011;39288;42.970;1.524;2023-03-31T05:08:49;15.40;;;7.07;;
53389;SDS011;39288;42.970;1.524;2023-03-31T05:09:49;19.27;;;8.00;;
53389;SDS011;39288;42.970;1.524;2023-03-31T05:10:49;18.23;;;6.63;;
53389;SDS011;39288;42.970;1.524;2023-03-31T05:11:50;14.97;;;7.20;;
53389;SDS011;39288;42.970;1.524;2023-03-31T05:12:50;17.10;;;6.67;;
53389;SDS011;39288;42.970;1.524;2023-03-31T05:13:51;21.00;;;7.37;;
53389;SDS011;39288;42.970;1.524;2023-03-31T05:14:51;12.20;;;6.27;;
53389;SDS011;39288;42.970;1.524;2023-03-31T05:15:52;17.00;;;7.17;;
53389;SDS011;39288;42.970;1.524;2023-03-31T05:16:54;17.77;;;6.97;;
53389;SDS011;39288;42.970;1.524;2023-03-31T05:17:57;15.35;;;7.03;;
53389;SDS011;39288;42.970;1.524;2023-03-31T05:18:57;17.65;;;7.13;;
53389;SDS011;39288;42.970;1.524;2023-03-31T05:19:58;15.20;;;7.37;;
53389;SDS011;39288;42.970;1.524;2023-03-31T05:21:07;11.10;;;6.17;;
53389;SDS011;39288;42.970;1.524;2023-03-31T05:22:17;15.07;;;6.82;;
53389;SDS011;39288;42.970;1.524;2023-03-31T05:23:19;15.32;;;6.90;;
53389;SDS011;39288;42.970;1.524;2023-03-31T05:24:20;20.87;;;6.93;;
53389;SDS011;39288;42.970;1.524;2023-03-31T05:25:21;15.07;;;7.05;;
53389;SDS011;39288;42.970;1.524;2023-03-31T05:26:22;17.80;;;6.60;;
53389;SDS011;39288;42.970;1.524;2023-03-31T05:28:24;20.02;;;6.43;;
53389;SDS011;39288;42.970;1.524;2023-03-31T05:29:25;14.33;;;7.40;;
53389;SDS011;39288;42.970;1.524;2023-03-31T05:30:25;18.33;;;6.57;;
53389;SDS011;39288;42.970;1.524;2023-03-31T05:31:27;25.65;;;7.75;;
53389;SDS011;39288;42.970;1.524;2023-03-31T05:32:27;17.17;;;7.03;;
53389;SDS011;39288;42.970;1.524;2023-03-31T05:33:28;17.50;;;7.10;;
53389;SDS011;39288;42.970;1.524;2023-03-31T05:34:29;14.97;;;6.63;;
53389;SDS011;39288;42.970;1.524;2023-03-31T05:35:29;15.20;;;6.90;;
53389;SDS011;39288;42.970;1.524;2023-03-31T05:36:30;14.93;;;7.03;;
53389;SDS011;39288;42.970;1.524;2023-03-31T05:37:32;20.25;;;6.60;;
53389;SDS011;39288;42.970;1.524;2023-03-31T05:38:33;17.20;;;7.30;;
53389;SDS011;39288;42.970;1.524;2023-03-31T05:39:34;14.93;;;7.23;;
53389;SDS011;39288;42.970;1.524;2023-03-31T05:40:35;18.00;;;6.95;;
53389;SDS011;39288;42.970;1.524;2023-03-31T05:41:35;37.50;;;6.90;;
53389;SDS011;39288;42.970;1.524;2023-03-31T05:42:36;15.63;;;7.20;;
53389;SDS011;39288;42.970;1.524;2023-03-31T05:43:37;15.65;;;7.20;;
53389;SDS011;39288;42.970;1.524;2023-03-31T05:44:38;15.23;;;6.88;;
53389;SDS011;39288;42.970;1.524;2023-03-31T05:45:38;14.47;;;7.37;;
53389;SDS011;39288;42.970;1.524;2023-03-31T05:46:39;13.07;;;7.37;;
53389;SDS011;39288;42.970;1.524;2023-03-31T05:47:42;20.35;;;8.30;;
53389;SDS011;39288;42.970;1.524;2023-03-31T05:48:43;21.27;;;8.05;;
53389;SDS011;39288;42.970;1.524;2023-03-31T05:49:43;16.57;;;7.73;;
53389;SDS011;39288;42.970;1.524;2023-03-31T05:50:44;17.03;;;7.67;;
53389;SDS011;39288;42.970;1.524;2023-03-31T05:51:45;17.50;;;7.17;;
53389;SDS011;39288;42.970;1.524;2023-03-31T05:52:45;14.27;;;7.30;;
53389;SDS011;39288;42.970;1.524;2023-03-31T05:53:46;21.57;;;7.30;;
53389;SDS011;39288;42.970;1.524;2023-03-31T05:54:46;17.13;;;6.87;;
53389;SDS011;39288;42.970;1.524;2023-03-31T05:55:47;16.47;;;7.07;;
53389;SDS011;39288;42.970;1.524;2023-03-31T05:56:47;16.77;;;7.90;;
53389;SDS011;39288;42.970;1.524;2023-03-31T05:57:48;19.17;;;7.87;;
53389;SDS011;39288;42.970;1.524;2023-03-31T05:58:48;19.53;;;8.17;;
53389;SDS011;39288;42.970;1.524;2023-03-31T05:59:48;16.73;;;8.20;;
53389;SDS011;39288;42.970;1.524;2023-03-31T06:00:49;20.20;;;7.33;;
53389;SDS011;39288;42.970;1.524;2023-03-31T06:01:52;14.82;;;7.55;;
53389;SDS011;39288;42.970;1.524;2023-03-31T06:02:53;18.30;;;8.23;;
53389;SDS011;39288;42.970;1.524;2023-03-31T06:03:53;16.90;;;7.53;;
53389;SDS011;39288;42.970;1.524;2023-03-31T06:04:54;21.50;;;7.93;;
53389;SDS011;39288;42.970;1.524;2023-03-31T06:05:54;17.73;;;7.67;;
53389;SDS011;39288;42.970;1.524;2023-03-31T06:06:55;19.03;;;8.00;;
53389;SDS011;39288;42.970;1.524;2023-03-31T06:07:57;15.43;;;7.63;;
53389;SDS011;39288;42.970;1.524;2023-03-31T06:08:57;19.17;;;8.33;;
53389;SDS011;39288;42.970;1.524;2023-03-31T06:09:58;18.70;;;7.30;;
53389;SDS011;39288;42.970;1.524;2023-03-31T06:10:58;16.37;;;7.87;;
53389;SDS011;39288;42.970;1.524;2023-03-31T06:11:59;16.70;;;8.30;;
53389;SDS011;39288;42.970;1.524;2023-03-31T06:12:59;15.83;;;6.87;;
53389;SDS011;39288;42.970;1.524;2023-03-31T06:14:00;20.47;;;8.00;;
53389;SDS011;39288;42.970;1.524;2023-03-31T06:15:02;17.98;;;7.38;;
53389;SDS011;39288;42.970;1.524;2023-03-31T06:16:03;15.73;;;7.03;;
53389;SDS011;39288;42.970;1.524;2023-03-31T06:17:04;16.30;;;7.47;;
53389;SDS011;39288;42.970;1.524;2023-03-31T06:18:04;21.20;;;6.90;;
53389;SDS011;39288;42.970;1.524;2023-03-31T06:19:09;14.70;;;6.75;;
53389;SDS011;39288;42.970;1.524;2023-03-31T06:20:09;13.97;;;7.13;;
53389;SDS011;39288;42.970;1.524;2023-03-31T06:21:14;15.47;;;7.00;;
53389;SDS011;39288;42.970;1.524;2023-03-31T06:22:15;18.55;;;8.13;;
53389;SDS011;39288;42.970;1.524;2023-03-31T06:23:16;19.63;;;7.17;;
53389;SDS011;39288;42.970;1.524;2023-03-31T06:24:16;15.80;;;7.63;;
53389;SDS011;39288;42.970;1.524;2023-03-31T06:25:17;18.23;;;7.07;;
53389;SDS011;39288;42.970;1.524;2023-03-31T06:26:17;16.70;;;7.03;;
53389;SDS011;39288;42.970;1.524;2023-03-31T06:27:18;13.23;;;6.53;;
53389;SDS011;39288;42.970;1.524;2023-03-31T06:28:19;19.17;;;7.77;;
53389;SDS011;39288;42.970;1.524;2023-03-31T06:29:20;28.10;;;8.00;;
53389;SDS011;39288;42.970;1.524;2023-03-31T06:30:20;15.23;;;5.73;;
53389;SDS011;39288;42.970;1.524;2023-03-31T06:31:22;20.47;;;6.50;;
53389;SDS011;39288;42.970;1.524;2023-03-31T06:32:23;14.23;;;6.53;;
53389;SDS011;39288;42.970;1.524;2023-03-31T06:33:24;15.00;;;6.32;;
53389;SDS011;39288;42.970;1.524;2023-03-31T06:34:25;17.77;;;5.90;;
53389;SDS011;39288;42.970;1.524;2023-03-31T06:35:26;21.07;;;6.43;;
53389;SDS011;39288;42.970;1.524;2023-03-31T06:36:26;14.37;;;7.07;;
53389;SDS011;39288;42.970;1.524;2023-03-31T06:37:27;22.40;;;6.50;;
53389;SDS011;39288;42.970;1.524;2023-03-31T06:38:27;14.13;;;6.20;;
53389;SDS011;39288;42.970;1.524;2023-03-31T06:39:28;18.90;;;6.57;;
53389;SDS011;39288;42.970;1.524;2023-03-31T06:40:31;21.33;;;7.50;;
53389;SDS011;39288;42.970;1.524;2023-03-31T06:41:32;13.88;;;6.07;;
53389;SDS011;39288;42.970;1.524;2023-03-31T06:42:33;19.07;;;6.33;;
53389;SDS011;39288;42.970;1.524;2023-03-31T06:43:34;17.47;;;6.23;;
53389;SDS011;39288;42.970;1.524;2023-03-31T06:44:34;19.37;;;6.40;;
53389;SDS011;39288;42.970;1.524;2023-03-31T06:45:35;16.83;;;6.80;;
53389;SDS011;39288;42.970;1.524;2023-03-31T06:46:36;17.65;;;6.22;;
53389;SDS011;39288;42.970;1.524;2023-03-31T06:47:36;22.00;;;8.43;;
53389;SDS011;39288;42.970;1.524;2023-03-31T06:48:37;20.70;;;7.83;;
53389;SDS011;39288;42.970;1.524;2023-03-31T06:49:38;23.43;;;7.10;;
53389;SDS011;39288;42.970;1.524;2023-03-31T06:50:38;19.90;;;7.73;;
53389;SDS011;39288;42.970;1.524;2023-03-31T06:51:40;17.25;;;6.78;;
53389;SDS011;39288;42.970;1.524;2023-03-31T06:52:40;15.37;;;6.87;;
53389;SDS011;39288;42.970;1.524;2023-03-31T06:53:41;18.93;;;7.30;;
53389;SDS011;39288;42.970;1.524;2023-03-31T06:54:41;17.07;;;6.63;;
53389;SDS011;39288;42.970;1.524;2023-03-31T06:55:42;20.17;;;7.37;;
53389;SDS011;39288;42.970;1.524;2023-03-31T06:56:42;14.30;;;6.17;;
53389;SDS011;39288;42.970;1.524;2023-03-31T06:57:43;13.80;;;7.27;;
53389;SDS011;39288;42.970;1.524;2023-03-31T06:58:43;15.20;;;6.57;;
53389;SDS011;39288;42.970;1.524;2023-03-31T06:59:44;21.33;;;7.23;;
53389;SDS011;39288;42.970;1.524;2023-03-31T07:00:44;18.53;;;7.60;;
53389;SDS011;39288;42.970;1.524;2023-03-31T07:01:45;16.67;;;7.43;;
53389;SDS011;39288;42.970;1.524;2023-03-31T07:02:47;23.75;;;8.10;;
53389;SDS011;39288;42.970;1.524;2023-03-31T07:03:47;19.80;;;8.40;;